Time;durP1;ratioP1;P1;durP2;ratioP2;P2;SDS_P1;SDS_P2;PMS_P1;PMS_P2;Temp;Humidity;BMP_temperature;BMP_pressure;BME280_temperature;BME280_humidity;BME280_pressure;Samples;Min_cycle;Max_cycle;Signal;HPM_P1;HPM_P2
2021/09/23 00:00:57;;;;;;;19.23;13.70;;;307.50;2304.00;;;;;;5034744;28;20025;-78
2021/09/23 00:05:56;;;;;;;23.55;15.35;;;307.20;2304.00;;;;;;5034718;28;20032;-77
2021/09/23 00:11:51;;;;;;;25.45;16.55;;;307.20;2304.00;;;;;;5057957;23;20281;-75
2021/09/23 00:14:17;;;;;;;22.63;15.68;;;307.20;2304.00;;;;;;4971958;28;20027;-78
2021/09/23 00:16:43;;;;;;;21.27;13.95;;;282.50;2278.40;;;;;;4952620;28;20498;-76
2021/09/23 00:19:08;;;;;;;;;;;282.50;2278.40;;;;;;4971368;28;20491;-76
2021/09/23 00:21:34;;;;;;;23.10;15.73;;;282.50;2278.40;;;;;;4970955;28;19955;-78
2021/09/23 00:24:00;;;;;;;;;;;282.50;2278.40;;;;;;4956197;28;20371;-78
2021/09/23 00:26:25;;;;;;;23.55;14.48;;;282.50;2278.40;;;;;;4970168;28;19913;-75
2021/09/23 00:28:51;;;;;;;19.95;14.18;;;307.20;2304.00;;;;;;4950486;28;20142;-76
2021/09/23 00:31:17;;;;;;;;;;;307.20;2304.00;;;;;;4974613;28;20446;-76
2021/09/23 00:33:43;;;;;;;22.65;14.48;;;307.30;2304.00;;;;;;4991310;28;19916;-78
2021/09/23 00:36:09;;;;;;;21.45;15.07;;;307.40;2304.00;;;;;;4974232;28;20050;-78
2021/09/23 00:38:34;;;;;;;20.52;14.20;;;307.30;2304.00;;;;;;4971248;28;20054;-76
2021/09/23 00:41:00;;;;;;;22.60;15.07;;;307.20;2304.00;;;;;;4971573;28;20035;-76
2021/09/23 00:43:26;;;;;;;19.27;14.02;;;307.20;2304.00;;;;;;4967477;28;20030;-77
2021/09/23 00:45:52;;;;;;;24.95;16.20;;;307.20;2304.00;;;;;;4970326;28;20022;-75
2021/09/23 00:48:17;;;;;;;;;;;307.20;2304.00;;;;;;4950511;28;20023;-78
2021/09/23 00:50:44;;;;;;;23.40;16.40;;;307.20;2304.00;;;;;;4952690;28;19913;-75
2021/09/23 00:53:10;;;;;;;26.52;18.42;;;282.50;2278.40;;;;;;4970437;28;20031;-76
2021/09/23 00:55:36;;;;;;;30.13;18.90;;;307.20;2304.00;;;;;;4970236;28;20041;-78
2021/09/23 00:58:02;;;;;;;24.55;18.02;;;282.40;2278.40;;;;;;4956226;28;20039;-76
2021/09/23 01:00:27;;;;;;;23.40;18.00;;;282.40;2278.40;;;;;;4970779;28;20383;-78
2021/09/23 01:02:53;;;;;;;;;;;282.40;2278.40;;;;;;4956675;28;20059;-76
2021/09/23 01:05:19;;;;;;;20.65;14.48;;;282.40;2278.40;;;;;;4970772;28;19906;-78
2021/09/23 01:07:49;;;;;;;19.42;14.40;;;282.40;2278.40;;;;;;4970330;28;20078;-79
2021/09/23 01:10:18;;;;;;;19.38;13.38;;;282.40;2278.40;;;;;;4967093;28;20114;-76
2021/09/23 01:12:46;;;;;;;21.17;14.35;;;282.30;2278.40;;;;;;4969823;28;20041;-77
2021/09/23 01:15:15;;;;;;;19.20;12.50;;;282.30;2278.40;;;;;;4970204;28;20030;-77
2021/09/23 01:17:42;;;;;;;17.80;12.43;;;282.30;2278.40;;;;;;4956139;28;20031;-78
2021/09/23 01:20:08;;;;;;;18.25;12.68;;;282.30;2278.40;;;;;;4952973;28;20475;-77
2021/09/23 01:22:34;;;;;;;17.92;12.60;;;282.30;2278.40;;;;;;4947094;29;20031;-77
2021/09/23 01:25:01;;;;;;;17.88;12.95;;;282.30;2278.40;;;;;;4951765;28;20029;-78
2021/09/23 01:27:27;;;;;;;18.20;12.25;;;282.20;2278.40;;;;;;4951763;28;20539;-78
2021/09/23 01:29:53;;;;;;;18.50;13.32;;;282.30;2278.40;;;;;;4967345;28;20035;-75
2021/09/23 01:32:19;;;;;;;;;;;282.40;2278.40;;;;;;4947759;28;20479;-76
2021/09/23 01:34:45;;;;;;;18.33;11.57;;;282.10;2278.40;;;;;;4955362;28;19910;-76
2021/09/23 01:37:11;;;;;;;17.77;12.57;;;282.00;2278.40;;;;;;4971468;28;20034;-78
2021/09/23 01:39:37;;;;;;;20.77;13.07;;;282.00;2278.40;;;;;;4946962;28;20023;-78
2021/09/23 01:42:05;;;;;;;19.25;12.13;;;282.00;2278.40;;;;;;4952715;28;20161;-77
2021/09/23 01:44:31;;;;;;;19.70;13.50;;;281.90;2278.40;;;;;;4946930;29;20023;-75
2021/09/23 01:46:57;;;;;;;18.27;13.20;;;281.90;2278.40;;;;;;4968827;28;20486;-76
2021/09/23 01:49:23;;;;;;;17.67;12.98;;;281.80;2278.40;;;;;;4966876;28;20030;-77
2021/09/23 01:51:48;;;;;;;;;;;281.70;2278.40;;;;;;4963954;28;20019;-78
2021/09/23 01:54:16;;;;;;;20.73;14.15;;;281.70;2278.40;;;;;;4970040;28;19910;-78
2021/09/23 01:56:42;;;;;;;19.52;13.25;;;282.00;2278.40;;;;;;4955563;28;20398;-76
2021/09/23 01:59:08;;;;;;;20.73;14.43;;;282.00;2278.40;;;;;;4955110;28;20031;-76
2021/09/23 02:01:34;;;;;;;21.85;12.80;;;282.10;2278.40;;;;;;4974578;28;20113;-77
2021/09/23 02:03:59;;;;;;;;;;;282.20;2278.40;;;;;;4991950;28;20054;-76
2021/09/23 02:06:26;;;;;;;16.25;12.35;;;282.20;2278.40;;;;;;4974691;28;19922;-77
2021/09/23 02:08:52;;;;;;;20.95;12.50;;;282.20;2278.40;;;;;;4952356;28;20168;-77
2021/09/23 02:11:17;;;;;;;19.88;13.85;;;282.20;2278.40;;;;;;4969455;28;20555;-76
2021/09/23 02:13:43;;;;;;;;;;;282.20;2278.40;;;;;;4955800;28;20438;-78
2021/09/23 02:16:09;;;;;;;21.27;13.10;;;282.20;2278.40;;;;;;4950825;28;19910;-78
2021/09/23 02:18:35;;;;;;;20.10;13.93;;;282.10;2278.40;;;;;;4969099;28;20471;-77
2021/09/23 02:21:01;;;;;;;24.88;16.25;;;282.10;2278.40;;;;;;4969952;28;20027;-76
2021/09/23 02:23:26;;;;;;;22.48;14.73;;;282.00;2278.40;;;;;;4969742;28;20031;-78
2021/09/23 02:25:52;;;;;;;;;;;282.00;2278.40;;;;;;4970218;28;20097;-76
2021/09/23 02:28:18;;;;;;;20.85;15.07;;;282.00;2278.40;;;;;;4969922;28;19976;-77
2021/09/23 02:30:43;;;;;;;19.58;14.27;;;282.00;2278.40;;;;;;4961080;28;20030;-76
2021/09/23 02:33:09;;;;;;;;;;;282.10;2278.40;;;;;;4990066;28;20450;-78
2021/09/23 02:35:35;;;;;;;22.83;14.25;;;282.00;2278.40;;;;;;4993129;28;19914;-76
2021/09/23 02:38:00;;;;;;;;;;;282.00;2278.40;;;;;;4969713;28;20498;-75
2021/09/23 02:40:26;;;;;;;21.20;14.85;;;281.70;2278.40;;;;;;4980544;28;19914;-76
2021/09/23 02:42:52;;;;;;;;;;;256.90;2252.80;;;;;;4965833;28;20058;-76
2021/09/23 02:45:18;;;;;;;24.75;15.68;;;256.90;2252.80;;;;;;4964498;28;20370;-78
2021/09/23 02:47:43;;;;;;;29.92;15.65;;;256.80;2252.80;;;;;;4972664;28;20026;-78
2021/09/23 02:50:10;;;;;;;;;;;256.90;2252.80;;;;;;4970147;28;20027;-78
2021/09/23 02:52:36;;;;;;;24.03;14.57;;;281.60;2278.40;;;;;;4955159;28;19922;-77
2021/09/23 02:55:03;;;;;;;21.95;15.07;;;256.90;2252.80;;;;;;4968541;28;20352;-76
2021/09/23 02:57:28;;;;;;;26.13;15.90;;;256.70;2252.80;;;;;;4954978;28;20038;-78
2021/09/23 02:59:54;;;;;;;27.10;15.73;;;256.60;2252.80;;;;;;4952207;28;20391;-78
2021/09/23 03:02:20;;;;;;;;;;;256.50;2252.80;;;;;;4957930;28;20019;-79
2021/09/23 03:04:45;;;;;;;21.73;13.80;;;256.30;2252.80;;;;;;4985511;28;19996;-79
2021/09/23 03:07:11;;;;;;;27.63;15.73;;;256.30;2252.80;;;;;;4978916;28;20023;-80
2021/09/23 03:09:37;;;;;;;;;;;256.30;2252.80;;;;;;4967479;28;20023;-77
2021/09/23 03:12:03;;;;;;;19.30;13.50;;;256.20;2252.80;;;;;;4949118;28;19919;-80
2021/09/23 03:14:28;;;;;;;;;;;256.20;2252.80;;;;;;4952326;28;20042;-79
2021/09/23 03:16:54;;;;;;;26.43;15.50;;;256.20;2252.80;;;;;;4952415;28;20347;-80
2021/09/23 03:19:20;;;;;;;;;;;256.30;2252.80;;;;;;4959221;28;20034;-76
2021/09/23 03:21:46;;;;;;;20.30;13.23;;;256.30;2252.80;;;;;;4970525;28;19945;-80
2021/09/23 03:24:11;;;;;;;;;;;256.30;2252.80;;;;;;4958767;28;20039;-80
2021/09/23 03:26:41;;;;;;;24.73;15.70;;;256.50;2252.80;;;;;;4970451;28;19920;-76
2021/09/23 03:29:08;;;;;;;30.17;18.88;;;256.40;2252.80;;;;;;4974361;28;20031;-75
2021/09/23 03:31:35;;;;;;;47.08;25.75;;;256.60;2252.80;;;;;;4970759;28;20023;-75
2021/09/23 03:34:01;;;;;;;45.28;27.48;;;256.70;2252.80;;;;;;4955374;28;20027;-76
2021/09/23 03:36:27;;;;;;;81.57;47.28;;;256.80;2252.80;;;;;;4952102;28;20027;-75
2021/09/23 03:38:55;;;;;;;121.53;61.72;;;256.90;2252.80;;;;;;4969079;28;20027;-79
2021/09/23 03:41:22;;;;;;;134.13;71.28;;;256.80;2252.80;;;;;;4970458;28;20030;-76
2021/09/23 03:43:48;;;;;;;145.60;77.10;;;256.90;2252.80;;;;;;4956670;28;20018;-75
2021/09/23 03:46:14;;;;;;;130.98;68.10;;;256.90;2252.80;;;;;;4954521;28;20390;-76
2021/09/23 03:48:39;;;;;;;87.30;48.95;;;281.60;2278.40;;;;;;4981348;28;20021;-80
2021/09/23 03:51:05;;;;;;;52.50;31.15;;;281.70;2278.40;;;;;;4993391;28;20018;-75
2021/09/23 03:53:31;;;;;;;;;;;281.70;2278.40;;;;;;4980022;28;20022;-76
2021/09/23 03:55:57;;;;;;;24.42;16.08;;;281.80;2278.40;;;;;;4970167;28;20310;-76
2021/09/23 03:58:22;;;;;;;;;;;281.70;2278.40;;;;;;4981851;28;20034;-76
2021/09/23 04:00:48;;;;;;;28.52;14.35;;;281.60;2278.40;;;;;;4956533;28;19906;-76
2021/09/23 04:03:14;;;;;;;;;;;256.80;2252.80;;;;;;4951793;28;20126;-80
2021/09/23 04:05:40;;;;;;;21.23;14.65;;;256.70;2252.80;;;;;;4950675;28;19949;-80
2021/09/23 04:08:05;;;;;;;23.83;14.82;;;256.60;2252.80;;;;;;4957755;28;20466;-80
2021/09/23 04:10:31;;;;;;;;;;;256.70;2252.80;;;;;;4956726;28;20410;-81
2021/09/23 04:12:57;;;;;;;31.27;17.77;;;256.70;2252.80;;;;;;4956860;28;19915;-76
2021/09/23 04:15:24;;;;;;;25.75;16.55;;;256.70;2252.80;;;;;;4960754;28;20049;-75
2021/09/23 04:17:51;;;;;;;24.77;16.15;;;256.60;2252.80;;;;;;4952681;28;20027;-79
2021/09/23 04:20:17;;;;;;;24.15;15.35;;;256.50;2252.80;;;;;;4977574;28;20359;-80
2021/09/23 04:22:43;;;;;;;26.25;16.13;;;256.60;2252.80;;;;;;4960175;28;20030;-80
2021/09/23 04:25:08;;;;;;;;;;;256.60;2252.80;;;;;;4970610;28;20019;-76
2021/09/23 04:27:34;;;;;;;22.58;13.07;;;256.60;2252.80;;;;;;4976398;28;20325;-80
2021/09/23 04:30:00;;;;;;;;;;;256.60;2252.80;;;;;;4985081;28;20031;-75
2021/09/23 04:32:25;;;;;;;19.75;12.18;;;256.50;2252.80;;;;;;4966815;28;19960;-80
2021/09/23 04:34:51;;;;;;;18.25;12.40;;;256.50;2252.80;;;;;;4957264;28;20386;-80
2021/09/23 04:37:17;;;;;;;17.08;11.38;;;256.50;2252.80;;;;;;4956412;28;20035;-77
2021/09/23 04:39:43;;;;;;;17.23;12.65;;;256.60;2252.80;;;;;;4957033;28;20034;-78
2021/09/23 04:42:09;;;;;;;18.98;11.88;;;256.70;2252.80;;;;;;4957197;28;20027;-78
2021/09/23 04:44:34;;;;;;;18.65;11.23;;;256.60;2252.80;;;;;;4967139;28;20019;-80
2021/09/23 04:47:04;;;;;;;15.35;11.65;;;256.70;2252.80;;;;;;4969696;28;20030;-81
2021/09/23 04:49:30;;;;;;;22.45;14.90;;;256.70;2252.80;;;;;;4972192;28;20043;-80
2021/09/23 04:51:56;;;;;;;22.38;13.63;;;256.60;2252.80;;;;;;4967369;28;20525;-75
2021/09/23 04:54:22;;;;;;;16.70;12.32;;;256.50;2252.80;;;;;;4969089;28;20055;-77
2021/09/23 04:56:48;;;;;;;16.02;10.95;;;256.60;2252.80;;;;;;4968498;28;20061;-76
2021/09/23 04:59:14;;;;;;;14.77;10.38;;;256.50;2252.80;;;;;;4968856;28;20663;-80
2021/09/23 05:01:39;;;;;;;14.90;9.65;;;256.50;2252.80;;;;;;4948761;28;20027;-80
2021/09/23 05:04:05;;;;;;;13.57;10.00;;;256.50;2252.80;;;;;;4949390;28;20027;-77
2021/09/23 05:06:31;;;;;;;;;;;256.50;2252.80;;;;;;4952395;28;20070;-80
2021/09/23 05:08:57;;;;;;;14.30;9.27;;;256.50;2252.80;;;;;;4949682;28;19906;-76
2021/09/23 05:11:25;;;;;;;13.90;8.50;;;256.50;2252.80;;;;;;4967975;28;20062;-79
2021/09/23 05:13:51;;;;;;;12.27;7.93;;;256.40;2252.80;;;;;;4952942;28;20027;-79
2021/09/23 05:16:17;;;;;;;13.13;8.77;;;256.40;2252.80;;;;;;4949993;28;20035;-79
2021/09/23 05:18:43;;;;;;;;;;;256.30;2252.80;;;;;;4967615;28;20526;-76
2021/09/23 05:21:09;;;;;;;12.25;6.32;;;256.20;2252.80;;;;;;4970849;28;20362;-76
2021/09/23 05:23:35;;;;;;;11.30;7.25;;;256.40;2252.80;;;;;;4967110;28;20150;-77
2021/09/23 05:26:01;;;;;;;15.82;8.80;;;256.30;2252.80;;;;;;4968714;28;20106;-77
2021/09/23 05:28:26;;;;;;;;;;;256.30;2252.80;;;;;;4969208;28;20027;-76
2021/09/23 05:30:52;;;;;;;9.23;7.32;;;256.40;2252.80;;;;;;4965620;28;19906;-75
2021/09/23 05:33:18;;;;;;;;;;;256.30;2252.80;;;;;;4970467;28;20121;-79
2021/09/23 05:35:45;;;;;;;10.10;7.30;;;256.30;2252.80;;;;;;4968590;28;20004;-78
2021/09/23 05:38:11;;;;;;;10.27;8.23;;;256.40;2252.80;;;;;;4977944;28;20026;-79
2021/09/23 05:40:37;;;;;;;11.02;7.03;;;256.60;2252.80;;;;;;4968826;28;20035;-76
2021/09/23 05:43:03;;;;;;;11.82;8.23;;;256.50;2252.80;;;;;;4967923;28;20058;-78
2021/09/23 05:45:29;;;;;;;10.60;7.75;;;256.40;2252.80;;;;;;4970620;28;20105;-81
2021/09/23 05:47:55;;;;;;;;;;;256.50;2252.80;;;;;;4956275;28;20038;-80
2021/09/23 05:50:21;;;;;;;18.35;9.95;;;256.50;2252.80;;;;;;4968048;28;19917;-78
2021/09/23 05:52:46;;;;;;;20.38;12.02;;;256.40;2252.80;;;;;;4967532;28;20046;-79
2021/09/23 05:55:12;;;;;;;;;;;256.50;2252.80;;;;;;4968610;28;20102;-77
2021/09/23 05:57:38;;;;;;;21.00;12.25;;;256.50;2252.80;;;;;;4952218;28;19953;-77
2021/09/23 06:00:06;;;;;;;;;;;256.60;2252.80;;;;;;4956069;28;20023;-80
2021/09/23 06:02:31;;;;;;;15.98;10.95;;;256.50;2252.80;;;;;;4972598;28;19911;-77
2021/09/23 06:04:57;;;;;;;18.63;10.85;;;256.60;2252.80;;;;;;4973115;28;20034;-78
2021/09/23 06:07:23;;;;;;;15.43;10.95;;;256.70;2252.80;;;;;;4972759;28;20119;-80
2021/09/23 06:09:48;;;;;;;14.88;10.25;;;256.90;2252.80;;;;;;4955217;28;20019;-77
2021/09/23 06:12:14;;;;;;;;;;;256.80;2252.80;;;;;;4973179;28;20126;-78
2021/09/23 06:14:40;;;;;;;13.63;10.07;;;256.90;2252.80;;;;;;4955200;28;20349;-79
2021/09/23 06:17:05;;;;;;;;;;;256.90;2252.80;;;;;;4966625;28;20161;-79
2021/09/23 06:19:31;;;;;;;16.55;11.10;;;256.90;2252.80;;;;;;4979831;28;19921;-77
2021/09/23 06:21:57;;;;;;;22.25;12.27;;;281.60;2278.40;;;;;;4975150;28;20502;-75
2021/09/23 06:24:23;;;;;;;18.13;12.15;;;281.70;2278.40;;;;;;4991526;28;20022;-76
2021/09/23 06:26:49;;;;;;;16.40;12.02;;;281.80;2278.40;;;;;;4992101;28;20034;-76
2021/09/23 06:29:14;;;;;;;;;;;281.80;2278.40;;;;;;4992664;28;20097;-79
2021/09/23 06:31:40;;;;;;;17.38;12.75;;;282.00;2278.40;;;;;;4975592;28;20388;-80
2021/09/23 06:34:06;;;;;;;15.98;11.88;;;281.90;2278.40;;;;;;4990973;28;20053;-80
2021/09/23 06:36:35;;;;;;;17.58;13.18;;;282.00;2278.40;;;;;;4980406;28;20027;-76
2021/09/23 06:39:05;;;;;;;18.65;13.55;;;282.20;2278.40;;;;;;4992611;28;20026;-80
2021/09/23 06:41:32;;;;;;;18.00;13.65;;;282.20;2278.40;;;;;;4991986;28;20391;-79
2021/09/23 06:44:02;;;;;;;17.52;12.82;;;282.30;2278.40;;;;;;4975062;28;20029;-79
2021/09/23 06:46:27;;;;;;;22.15;16.67;;;282.50;2278.40;;;;;;4993436;28;20033;-78
2021/09/23 06:48:53;;;;;;;22.38;15.35;;;307.20;2304.00;;;;;;4978386;28;20039;-78
2021/09/23 06:51:20;;;;;;;25.75;16.10;;;307.30;2304.00;;;;;;4996093;28;20028;-75
2021/09/23 06:53:47;;;;;;;23.48;15.88;;;307.40;2304.00;;;;;;4976897;28;20022;-81
2021/09/23 06:56:13;;;;;;;24.77;16.88;;;307.40;2304.00;;;;;;4968489;28;20018;-76
2021/09/23 06:58:39;;;;;;;20.63;14.80;;;307.40;2304.00;;;;;;4958346;28;20192;-75
2021/09/23 07:01:05;;;;;;;22.20;15.52;;;307.40;2304.00;;;;;;4958719;28;20423;-80
2021/09/23 07:03:31;;;;;;;23.13;15.73;;;307.50;2304.00;;;;;;4975961;28;20026;-77
2021/09/23 07:05:57;;;;;;;;;;;307.30;2304.00;;;;;;4976411;28;20033;-77
2021/09/23 07:08:22;;;;;;;23.45;15.95;;;307.50;2304.00;;;;;;4975689;28;19917;-75
2021/09/23 07:10:51;;;;;;;25.02;15.90;;;307.50;2304.00;;;;;;4975761;28;20451;-77
2021/09/23 07:13:17;;;;;;;22.38;15.98;;;307.60;2304.00;;;;;;4975135;28;20126;-76
2021/09/23 07:15:43;;;;;;;23.70;18.45;;;307.70;2304.00;;;;;;4958425;28;20023;-77
2021/09/23 07:18:12;;;;;;;27.50;17.80;;;307.80;2304.00;;;;;;4976053;28;20086;-79
2021/09/23 07:20:38;;;;;;;29.52;18.33;;;307.80;2304.00;;;;;;4974673;28;20032;-77
2021/09/23 07:23:04;;;;;;;26.90;18.70;;;307.90;2304.00;;;;;;4978197;28;20026;-76
2021/09/23 07:25:30;;;;;;;;;;;308.00;2304.00;;;;;;4978250;28;20073;-79
2021/09/23 07:27:57;;;;;;;28.00;19.63;;;308.00;2304.00;;;;;;4995203;28;19905;-79
2021/09/23 07:30:23;;;;;;;27.83;18.40;;;308.10;2304.00;;;;;;4982668;28;20265;-76
2021/09/23 07:32:51;;;;;;;26.25;18.17;;;308.10;2304.00;;;;;;4963248;28;20046;-77
2021/09/23 07:35:17;;;;;;;29.67;19.90;;;332.80;2329.60;;;;;;4976803;28;20117;-76
2021/09/23 07:37:43;;;;;;;27.35;18.90;;;332.80;2329.60;;;;;;4978474;28;20030;-76
2021/09/23 07:40:10;;;;;;;27.65;19.50;;;333.00;2329.60;;;;;;4975688;28;20039;-79
2021/09/23 07:42:37;;;;;;;25.30;17.85;;;333.00;2329.60;;;;;;4975296;28;20521;-80
2021/09/23 07:45:05;;;;;;;26.23;17.45;;;333.40;2329.60;;;;;;4974155;28;20042;-82
2021/09/23 07:47:31;;;;;;;27.80;18.92;;;333.00;2329.60;;;;;;4956959;28;20037;-82
2021/09/23 07:49:56;;;;;;;26.98;18.75;;;333.10;2329.60;;;;;;4957707;28;20387;-76
2021/09/23 07:52:22;;;;;;;26.20;19.15;;;333.20;2329.60;;;;;;4956799;28;20045;-87
2021/09/23 07:54:52;;;;;;;27.67;18.15;;;333.30;2329.60;;;;;;4973042;28;20027;-77
2021/09/23 07:57:18;;;;;;;28.13;20.20;;;333.40;2329.60;;;;;;4957694;28;20031;-77
2021/09/23 07:59:44;;;;;;;24.65;17.08;;;333.50;2329.60;;;;;;4958859;28;20023;-76
2021/09/23 08:02:09;;;;;;;25.00;17.83;;;333.60;2329.60;;;;;;4975319;28;20058;-77
2021/09/23 08:04:35;;;;;;;29.27;18.45;;;333.70;2329.60;;;;;;4957317;28;20039;-78
2021/09/23 08:07:01;;;;;;;27.50;18.80;;;358.50;2329.60;;;;;;4975234;28;20034;-79
2021/09/23 08:09:27;;;;;;;27.08;17.98;;;358.60;2329.60;;;;;;4975163;28;20031;-78
2021/09/23 08:11:53;;;;;;;24.83;17.73;;;358.70;2329.60;;;;;;4958107;28;20073;-81
2021/09/23 08:14:19;;;;;;;23.38;15.98;;;358.60;2329.60;;;;;;4966036;28;20035;-77
2021/09/23 08:16:44;;;;;;;17.33;13.48;;;358.70;2329.60;;;;;;4975015;28;20034;-77
2021/09/23 08:19:11;;;;;;;22.77;14.35;;;358.80;2329.60;;;;;;4961186;28;20035;-79
2021/09/23 08:21:37;;;;;;;22.05;14.77;;;358.80;2329.60;;;;;;4994565;28;20081;-79
2021/09/23 08:24:04;;;;;;;17.67;12.23;;;358.90;2329.60;;;;;;4980542;28;20058;-79
2021/09/23 08:26:30;;;;;;;17.90;12.02;;;358.90;2329.60;;;;;;4976834;28;20026;-76
2021/09/23 08:28:56;;;;;;;18.83;12.45;;;359.00;2329.60;;;;;;4994260;28;20442;-79
2021/09/23 08:31:23;;;;;;;19.95;13.32;;;359.10;2329.60;;;;;;4994666;28;20556;-80
2021/09/23 08:33:50;;;;;;;16.00;9.20;;;359.10;2329.60;;;;;;4994727;28;20053;-81
2021/09/23 08:36:16;;;;;;;12.35;8.35;;;359.10;2329.60;;;;;;4976565;28;20022;-77
2021/09/23 08:38:42;;;;;;;13.90;8.27;;;359.20;2329.60;;;;;;4983167;28;20034;-80
2021/09/23 08:41:07;;;;;;;12.95;8.90;;;359.30;2329.60;;;;;;4977260;28;20033;-77
2021/09/23 08:43:34;;;;;;;13.50;9.07;;;384.00;2329.60;;;;;;4993917;28;20383;-79
2021/09/23 08:46:02;;;;;;;12.68;7.55;;;384.00;2329.60;;;;;;4975670;28;20038;-77
2021/09/23 08:48:29;;;;;;;12.73;7.13;;;384.10;2329.60;;;;;;4993875;28;20023;-79
2021/09/23 08:50:55;;;;;;;10.63;7.95;;;384.10;2329.60;;;;;;4993741;28;20026;-78
2021/09/23 08:53:21;;;;;;;12.05;7.55;;;384.20;2329.60;;;;;;4962487;28;20049;-80
2021/09/23 08:55:47;;;;;;;11.07;6.45;;;384.30;2329.60;;;;;;4993642;28;20379;-77
2021/09/23 08:58:13;;;;;;;8.50;6.47;;;384.30;2329.60;;;;;;4975982;28;20386;-81
2021/09/23 09:01:04;;;;;;;9.18;6.15;;;384.40;2329.60;;;;;;4993975;28;20026;-77
2021/09/23 09:03:33;;;;;;;10.65;7.43;;;384.40;2329.60;;;;;;4977401;28;20058;-77
2021/09/23 09:06:03;;;;;;;9.82;7.65;;;384.60;2329.60;;;;;;4976200;28;20061;-77
2021/09/23 09:08:31;;;;;;;12.52;8.25;;;384.60;2329.60;;;;;;4992731;28;20046;-82
2021/09/23 09:10:58;;;;;;;18.05;8.57;;;384.60;2329.60;;;;;;4975817;28;20507;-77
2021/09/23 09:13:34;;;;;;;13.10;7.63;;;384.50;2329.60;;;;;;4993230;28;20053;-77
2021/09/23 09:16:14;;;;;;;10.85;7.70;;;384.60;2329.60;;;;;;4993441;28;20080;-77
2021/09/23 09:18:40;;;;;;;12.65;8.02;;;384.70;2329.60;;;;;;4993178;28;20128;-81
2021/09/23 09:21:12;;;;;;;10.18;6.10;;;384.60;2329.60;;;;;;4976228;28;20026;-81
2021/09/23 09:23:44;;;;;;;15.88;8.00;;;384.60;2329.60;;;;;;4975748;28;20022;-79
2021/09/23 09:26:15;;;;;;;10.63;7.35;;;384.70;2329.60;;;;;;4975855;28;20509;-77
2021/09/23 09:28:50;;;;;;;10.95;7.35;;;384.70;2329.60;;;;;;4975544;28;20368;-80
2021/09/23 09:31:16;;;;;;;11.05;7.75;;;384.70;2329.60;;;;;;4975752;28;20054;-81
2021/09/23 09:33:45;;;;;;;10.18;6.85;;;384.90;2329.60;;;;;;4964445;28;20065;-78
2021/09/23 09:36:37;;;;;;;12.02;8.98;;;384.90;2329.60;;;;;;4991357;28;20018;-78
2021/09/23 09:39:13;;;;;;;12.30;7.60;;;409.60;2355.20;;;;;;4975262;28;20042;-78
2021/09/23 09:41:41;;;;;;;10.32;7.32;;;409.70;2355.20;;;;;;4992911;28;20037;-78
2021/09/23 09:44:11;;;;;;;13.20;9.25;;;409.70;2355.20;;;;;;4975035;28;20045;-77
2021/09/23 09:46:49;;;;;;;13.48;8.63;;;409.90;2355.20;;;;;;4992972;28;20026;-79
2021/09/23 09:49:16;;;;;;;16.10;10.32;;;409.90;2355.20;;;;;;4975307;28;20034;-79
2021/09/23 09:51:48;;;;;;;16.25;9.95;;;409.80;2355.20;;;;;;4992450;28;20026;-77
2021/09/23 09:54:16;;;;;;;16.75;9.43;;;410.10;2355.20;;;;;;4975022;28;20030;-77
2021/09/23 09:56:44;;;;;;;13.35;8.43;;;410.20;2355.20;;;;;;4974554;28;20018;-78
2021/09/23 09:59:14;;;;;;;15.68;8.40;;;410.20;2304.00;;;;;;4969819;28;20039;-79
2021/09/23 10:01:44;;;;;;;11.05;8.18;;;410.30;2304.00;;;;;;4955398;28;20018;-80
2021/09/23 10:04:11;;;;;;;12.85;8.30;;;410.40;2278.40;;;;;;4974513;28;20034;-79
2021/09/23 10:06:38;;;;;;;11.18;7.05;;;410.40;2304.00;;;;;;4958803;28;20356;-81
2021/09/23 10:09:04;;;;;;;11.30;6.65;;;410.50;2252.80;;;;;;4955755;28;20483;-83
2021/09/23 10:11:31;;;;;;;10.60;6.97;;;435.70;2176.00;;;;;;4972576;28;20511;-77
2021/09/23 10:13:58;;;;;;;9.38;7.22;;;435.30;2176.00;;;;;;4955440;28;20126;-80
2021/09/23 10:16:24;;;;;;;8.82;4.88;;;435.30;2176.00;;;;;;4955775;28;20027;-78
2021/09/23 10:18:51;;;;;;;7.95;5.63;;;435.30;2124.80;;;;;;4974197;28;20034;-79
2021/09/23 10:21:17;;;;;;;7.25;4.95;;;435.40;2048.00;;;;;;4977834;28;20031;-78
2021/09/23 10:23:46;;;;;;;8.48;4.53;;;435.60;2022.40;;;;;;4978784;28;20069;-78
2021/09/23 10:26:15;;;;;;;8.63;5.03;;;435.80;1971.20;;;;;;4962525;28;20074;-78
2021/09/23 10:28:46;;;;;;;7.40;4.72;;;436.10;1971.20;;;;;;4971998;28;20027;-79
2021/09/23 10:31:20;;;;;;;10.25;5.13;;;461.10;1971.20;;;;;;4995875;28;20058;-79
2021/09/23 10:33:47;;;;;;;7.63;4.53;;;461.30;1945.60;;;;;;4996245;28;20501;-78
2021/09/23 10:36:15;;;;;;;7.18;4.80;;;461.40;1894.40;;;;;;4951414;28;20026;-78
2021/09/23 10:38:42;;;;;;;7.50;4.82;;;461.50;1945.60;;;;;;4978866;28;20061;-78
2021/09/23 10:41:10;;;;;;;7.43;5.05;;;461.50;1920.00;;;;;;4994293;28;20026;-81
2021/09/23 10:43:38;;;;;;;7.97;4.93;;;461.70;1868.80;;;;;;4959449;28;20031;-77
2021/09/23 10:46:04;;;;;;;8.27;4.82;;;486.50;1843.20;;;;;;4958962;28;20054;-77
2021/09/23 10:48:38;;;;;;;10.02;5.28;;;461.70;1894.40;;;;;;4958808;28;20022;-78
2021/09/23 10:51:05;;;;;;;8.32;5.28;;;461.70;1843.20;;;;;;4958889;28;20023;-78
2021/09/23 10:53:36;;;;;;;7.93;4.65;;;486.40;1868.80;;;;;;4958782;28;20344;-78
2021/09/23 10:56:04;;;;;;;7.28;4.00;;;486.40;1792.00;;;;;;4976413;28;20030;-76
2021/09/23 10:58:31;;;;;;;6.10;4.30;;;486.50;1792.00;;;;;;4958861;28;20027;-75
2021/09/23 11:01:01;;;;;;;8.52;5.00;;;486.40;1792.00;;;;;;4958565;28;20030;-77
2021/09/23 11:03:35;;;;;;;6.72;4.18;;;461.70;1817.60;;;;;;4975997;28;20045;-79
2021/09/23 11:06:10;;;;;;;5.78;3.90;;;461.70;1843.20;;;;;;4976031;28;20023;-77
2021/09/23 11:08:46;;;;;;;5.85;3.00;;;461.60;1817.60;;;;;;4976094;28;20040;-77
2021/09/23 11:11:12;;;;;;;;;;;461.70;1792.00;;;;;;4958747;28;20081;-77
2021/09/23 11:13:40;;;;;;;7.35;3.85;;;486.40;1792.00;;;;;;4958307;28;20072;-78
2021/09/23 11:16:09;;;;;;;7.35;5.00;;;486.70;1766.40;;;;;;4958352;28;20031;-79
2021/09/23 11:18:36;;;;;;;8.38;4.35;;;486.80;1766.40;;;;;;4975455;28;20116;-76
2021/09/23 11:21:04;;;;;;;9.82;4.45;;;486.80;1792.00;;;;;;4977749;28;20033;-77
2021/09/23 11:23:31;;;;;;;8.73;4.20;;;486.50;1817.60;;;;;;4973926;28;20173;-74
2021/09/23 11:25:57;;;;;;;6.28;4.50;;;486.60;1792.00;;;;;;4956408;28;20173;-76
2021/09/23 11:28:23;;;;;;;7.15;4.45;;;;;;;;;;4972746;28;20067;-76
2021/09/23 11:30:51;;;;;;;7.28;4.45;;;487.30;1766.40;;;;;;4957389;28;20475;-76
2021/09/23 11:33:21;;;;;;;9.57;4.78;;;512.30;1740.80;;;;;;4970484;28;20567;-76
2021/09/23 11:35:48;;;;;;;8.45;5.68;;;512.50;1740.80;;;;;;4970963;28;20235;-76
2021/09/23 11:38:18;;;;;;;8.13;5.95;;;512.30;1740.80;;;;;;4951625;28;20035;-76
2021/09/23 11:40:45;;;;;;;10.07;6.35;;;512.90;1715.20;;;;;;4952462;28;20023;-76
2021/09/23 11:43:14;;;;;;;8.20;4.55;;;512.70;1766.40;;;;;;4972710;28;20034;-76
2021/09/23 11:45:51;;;;;;;6.50;4.47;;;537.60;1715.20;;;;;;4973515;28;20029;-76
2021/09/23 11:48:27;;;;;;;8.32;5.20;;;512.90;1689.60;;;;;;4952165;28;20038;-75
2021/09/23 11:51:14;;;;;;;11.75;4.70;;;512.90;1689.60;;;;;;4954991;28;20023;-76
2021/09/23 11:53:40;;;;;;;6.93;4.88;;;512.70;1715.20;;;;;;4972298;28;20375;-76
2021/09/23 11:56:16;;;;;;;8.52;4.82;;;487.30;1792.00;;;;;;4972768;28;20030;-76
2021/09/23 11:58:49;;;;;;;7.53;5.27;;;512.30;1817.60;;;;;;4974061;28;20034;-76
2021/09/23 12:01:19;;;;;;;5.93;4.55;;;512.70;1740.80;;;;;;4950346;28;20669;-76
2021/09/23 12:03:48;;;;;;;7.97;5.35;;;512.90;1664.00;;;;;;4975300;28;20029;-76
2021/09/23 12:06:16;;;;;;;14.07;6.20;;;537.60;1715.20;;;;;;4969341;28;20098;-76
2021/09/23 12:12:01;;;;;;;10.73;6.65;;;512.00;1792.00;;;;;;2932430;23;20069;-77
2021/09/23 12:14:27;;;;;;;12.95;7.10;;;512.30;1740.80;;;;;;4861265;29;20037;-77
2021/09/23 12:17:03;;;;;;;14.13;5.95;;;512.50;1766.40;;;;;;4854800;29;20085;-77
2021/09/23 12:19:30;;;;;;;11.70;7.60;;;512.60;1715.20;;;;;;4858588;29;20029;-78
2021/09/23 12:22:00;;;;;;;12.15;7.00;;;512.20;1766.40;;;;;;4880636;29;20425;-78
2021/09/23 12:24:39;;;;;;;10.25;7.07;;;487.30;1766.40;;;;;;4872029;29;20033;-77